Time,TemperatureF,DewpointF,PressureIn,WindDirection,WindDirectionDegrees,WindSpeedMPH,WindSpeedGustMPH,Humidity,HourlyPrecipIn,Conditions,Clouds,dailyrainin,SoftwareType,DateUTC
2013-01-11 00:00:00,43.2,30.3,30.11,ESE,103,3.0,8.0,60,0.00,,,0.00,WeatherCatV1.12B45,2013-01-11 08:00:00,
2013-01-11 00:05:00,43.4,30.5,30.11,SE,135,2.0,8.0,60,0.00,,,0.00,WeatherCatV1.12B45,2013-01-11 08:05:00,
2013-01-11 00:10:00,43.4,30.5,30.11,SE,135,2.0,8.0,60,0.00,,,0.00,WeatherCatV1.12B45,2013-01-11 08:10:00,
2013-01-11 00:15:00,43.4,30.5,30.11,SE,135,2.0,8.0,60,0.00,,,0.00,WeatherCatV1.12B45,2013-01-11 08:15:00,
2013-01-11 00:20:00,43.1,31.0,30.11,SSE,158,1.0,8.0,62,0.00,,,0.00,WeatherCatV1.12B45,2013-01-11 08:20:00,
2013-01-11 00:25:00,43.1,31.0,30.11,SSE,158,1.0,8.0,62,0.00,,,0.00,WeatherCatV1.12B45,2013-01-11 08:25:00,
2013-01-11 00:30:00,43.1,31.0,30.11,SSE,158,1.0,8.0,62,0.00,,,0.00,WeatherCatV1.12B45,2013-01-11 08:30:00,
2013-01-11 00:35:00,43.2,31.1,30.11,North,0,1.0,8.0,62,0.00,,,0.00,WeatherCatV1.12B45,2013-01-11 08:35:00,
2013-01-11 00:40:00,43.2,31.1,30.11,North,0,1.0,8.0,62,0.00,,,0.00,WeatherCatV1.12B45,2013-01-11 08:40:00,
2013-01-11 00:45:00,43.2,31.1,30.11,North,0,1.0,8.0,62,0.00,,,0.00,WeatherCatV1.12B45,2013-01-11 08:45:00,
2013-01-11 00:50:00,43.3,31.2,30.10,SSW,202,2.0,10.0,62,0.00,,,0.00,WeatherCatV1.12B45,2013-01-11 08:50:00,
2013-01-11 00:55:00,43.3,31.2,30.10,SSW,202,2.0,10.0,62,0.00,,,0.00,WeatherCatV1.12B45,2013-01-11 08:55:00,
2013-01-11 01:00:00,43.3,31.2,30.10,SSW,202,2.0,10.0,62,0.00,,,0.00,WeatherCatV1.12B45,2013-01-11 09:00:00,
2013-01-11 01:05:00,43.1,31.4,30.10,South,180,2.0,8.0,63,0.00,,,0.00,WeatherCatV1.12B45,2013-01-11 09:05:00,
2013-01-11 01:10:00,43.1,31.4,30.10,South,180,2.0,8.0,63,0.00,,,0.00,WeatherCatV1.12B45,2013-01-11 09:10:00,
2013-01-11 01:15:00,43.1,31.4,30.10,South,180,2.0,8.0,63,0.00,,,0.00,WeatherCatV1.12B45,2013-01-11 09:15:00,
2013-01-11 01:20:00,43.1,31.8,30.10,North,0,3.0,15.0,64,0.00,,,0.00,WeatherCatV1.12B45,2013-01-11 09:20:00,
2013-01-11 01:25:00,43.1,31.8,30.10,North,0,3.0,15.0,64,0.00,,,0.00,WeatherCatV1.12B45,2013-01-11 09:25:00,
2013-01-11 01:30:00,43.1,31.8,30.10,North,0,3.0,15.0,64,0.00,,,0.00,WeatherCatV1.12B45,2013-01-11 09:30:00,
2013-01-11 01:35:00,42.9,31.6,30.10,NNW,338,2.0,7.0,64,0.00,,,0.00,WeatherCatV1.12B45,2013-01-11 09:35:00,
2013-01-11 01:40:00,42.9,31.6,30.10,NNW,338,2.0,7.0,64,0.00,,,0.00,WeatherCatV1.12B45,2013-01-11 09:40:00,
2013-01-11 01:45:00,42.9,31.6,30.10,NNW,338,2.0,7.0,64,0.00,,,0.00,WeatherCatV1.12B45,2013-01-11 09:45:00,
2013-01-11 01:50:00,43.4,30.5,30.11,SSE,158,3.0,11.0,60,0.00,,,0.00,WeatherCatV1.12B45,2013-01-11 09:50:00,
2013-01-11 01:55:00,43.4,30.5,30.11,SSE,158,3.0,11.0,60,0.00,,,0.00,WeatherCatV1.12B45,2013-01-11 09:55:00,
2013-01-11 02:00:00,43.4,30.5,30.11,SSE,158,3.0,11.0,60,0.00,,,0.00,WeatherCatV1.12B45,2013-01-11 10:00:00,
2013-01-11 02:05:00,43.8,30.0,30.11,SSE,158,3.0,13.0,58,0.00,,,0.00,WeatherCatV1.12B45,2013-01-11 10:05:00,
2013-01-11 02:10:00,43.8,30.0,30.11,SSE,158,3.0,13.0,58,0.00,,,0.00,WeatherCatV1.12B45,2013-01-11 10:10:00,
2013-01-11 02:15:00,43.8,30.0,30.11,SSE,158,3.0,13.0,58,0.00,,,0.00,WeatherCatV1.12B45,2013-01-11 10:15:00,
2013-01-11 02:20:00,43.7,29.9,30.11,SE,135,3.0,8.0,58,0.00,,,0.00,WeatherCatV1.12B45,2013-01-11 10:20:00,
2013-01-11 02:25:00,43.7,29.9,30.11,SE,135,3.0,8.0,58,0.00,,,0.00,WeatherCatV1.12B45,2013-01-11 10:25:00,
2013-01-11 02:30:00,43.7,29.9,30.11,SE,135,3.0,8.0,58,0.00,,,0.00,WeatherCatV1.12B45,2013-01-11 10:30:00,
2013-01-11 02:35:00,43.7,29.0,30.11,SE,135,3.0,11.0,56,0.00,,,0.00,WeatherCatV1.12B45,2013-01-11 10:35:00,
2013-01-11 02:40:00,43.7,29.0,30.11,SE,135,3.0,11.0,56,0.00,,,0.00,WeatherCatV1.12B45,2013-01-11 10:40:00,
2013-01-11 02:45:00,43.7,29.0,30.11,SE,135,3.0,11.0,56,0.00,,,0.00,WeatherCatV1.12B45,2013-01-11 10:45:00,
2013-01-11 02:50:00,43.7,30.7,30.12,East,90,1.0,10.0,60,0.00,,,0.00,WeatherCatV1.12B45,2013-01-11 10:50:00,
2013-01-11 02:55:00,43.7,30.7,30.12,East,90,1.0,10.0,60,0.00,,,0.00,WeatherCatV1.12B45,2013-01-11 10:55:00,
2013-01-11 03:00:00,43.7,30.7,30.12,East,90,1.0,10.0,60,0.00,,,0.00,WeatherCatV1.12B45,2013-01-11 11:00:00,
2013-01-11 03:05:00,43.1,31.4,30.12,NE,45,1.0,6.0,63,0.00,,,0.00,WeatherCatV1.12B45,2013-01-11 11:05:00,
2013-01-11 03:10:00,43.1,31.4,30.12,NE,45,1.0,6.0,63,0.00,,,0.00,WeatherCatV1.12B45,2013-01-11 11:10:00,
2013-01-11 03:15:00,43.1,31.4,30.12,NE,45,1.0,6.0,63,0.00,,,0.00,WeatherCatV1.12B45,2013-01-11 11:15:00,
2013-01-11 03:20:00,42.4,31.1,30.11,ENE,68,1.0,9.0,64,0.00,,,0.00,WeatherCatV1.12B45,2013-01-11 11:20:00,
2013-01-11 03:25:00,42.4,31.1,30.11,ENE,68,1.0,9.0,64,0.00,,,0.00,WeatherCatV1.12B45,2013-01-11 11:25:00,
2013-01-11 03:30:00,42.4,31.1,30.11,ENE,68,1.0,9.0,64,0.00,,,0.00,WeatherCatV1.12B45,2013-01-11 11:30:00,
2013-01-11 03:35:00,42.7,30.6,30.11,NNE,22,3.0,12.0,62,0.00,,,0.00,WeatherCatV1.12B45,2013-01-11 11:35:00,
2013-01-11 03:40:00,42.7,30.6,30.11,NNE,22,3.0,12.0,62,0.00,,,0.00,WeatherCatV1.12B45,2013-01-11 11:40:00,
2013-01-11 03:45:00,42.7,30.6,30.11,NNE,22,3.0,12.0,62,0.00,,,0.00,WeatherCatV1.12B45,2013-01-11 11:45:00,
2013-01-11 03:50:00,42.8,30.7,30.11,ESE,112,3.0,11.0,62,0.00,,,0.00,WeatherCatV1.12B45,2013-01-11 11:50:00,
2013-01-11 03:55:00,42.8,30.7,30.11,ESE,112,3.0,11.0,62,0.00,,,0.00,WeatherCatV1.12B45,2013-01-11 11:55:00,
2013-01-11 04:00:00,42.8,30.7,30.11,ESE,112,3.0,11.0,62,0.00,,,0.00,WeatherCatV1.12B45,2013-01-11 12:00:00,
2013-01-11 04:05:00,42.9,30.4,30.11,SE,135,3.0,13.0,61,0.00,,,0.00,WeatherCatV1.12B45,2013-01-11 12:05:00,
2013-01-11 04:10:00,42.9,30.4,30.11,SE,135,3.0,13.0,61,0.00,,,0.00,WeatherCatV1.12B45,2013-01-11 12:10:00,
2013-01-11 04:15:00,42.9,30.4,30.11,SE,135,3.0,13.0,61,0.00,,,0.00,WeatherCatV1.12B45,2013-01-11 12:15:00,
2013-01-11 04:20:00,42.7,30.6,30.11,SE,135,3.0,9.0,62,0.00,,,0.00,WeatherCatV1.12B45,2013-01-11 12:20:00,
2013-01-11 04:25:00,42.7,30.6,30.11,SE,135,3.0,9.0,62,0.00,,,0.00,WeatherCatV1.12B45,2013-01-11 12:25:00,
2013-01-11 04:30:00,42.7,30.6,30.11,SE,135,3.0,9.0,62,0.00,,,0.00,WeatherCatV1.12B45,2013-01-11 12:30:00,
2013-01-11 04:35:00,42.6,30.5,30.11,East,90,2.0,10.0,62,0.00,,,0.00,WeatherCatV1.12B45,2013-01-11 12:35:00,
2013-01-11 04:40:00,42.6,30.5,30.11,East,90,2.0,10.0,62,0.00,,,0.00,WeatherCatV1.12B45,2013-01-11 12:40:00,
2013-01-11 04:45:00,42.6,30.5,30.11,East,90,2.0,10.0,62,0.00,,,0.00,WeatherCatV1.12B45,2013-01-11 12:45:00,
2013-01-11 04:50:00,42.7,29.8,30.12,SE,135,2.0,7.0,60,0.00,,,0.00,WeatherCatV1.12B45,2013-01-11 12:50:00,
2013-01-11 04:55:00,42.7,29.8,30.12,SE,135,2.0,7.0,60,0.00,,,0.00,WeatherCatV1.12B45,2013-01-11 12:55:00,
2013-01-11 05:00:00,42.7,29.8,30.12,SE,135,2.0,7.0,60,0.00,,,0.00,WeatherCatV1.12B45,2013-01-11 13:00:00,
2013-01-11 05:05:00,43.4,27.9,30.12,South,174,2.0,4.0,54,0.00,,,0.00,WeatherCatV1.12B45,2013-01-11 13:05:00,
2013-01-11 05:10:00,43.6,27.1,30.12,NNE,20,2.0,10.0,52,0.00,,,0.00,WeatherCatV1.12B45,2013-01-11 13:10:00,
2013-01-11 05:24:00,43.7,27.2,30.13,NNE,24,2.0,7.0,52,0.00,,,0.00,WeatherCatV1.12B45,2013-01-11 13:24:00,
2013-01-11 05:39:00,45.1,36.3,30.14,NNE,33,2.0,2.0,71,0.00,,,0.00,WeatherCatV1.12B45,2013-01-11 13:39:00,
2013-01-11 05:54:00,43.6,33.4,30.14,NE,41,0.0,0.0,67,0.00,,,0.00,WeatherCatV1.12B45,2013-01-11 13:54:00,
2013-01-11 06:09:00,49.1,38.6,30.14,NNW,331,1.0,1.0,67,0.00,,,0.00,WeatherCatV1.12B45,2013-01-11 14:09:00,
2013-01-11 06:24:00,47.4,39.9,30.15,North,355,0.0,2.0,75,0.00,,,0.00,WeatherCatV1.12B45,2013-01-11 14:24:00,
2013-01-11 06:39:00,45.0,33.2,30.15,North,355,0.0,1.0,63,0.00,,,0.00,WeatherCatV1.12B45,2013-01-11 14:39:00,
2013-01-11 06:54:00,43.6,33.7,30.15,North,351,0.0,3.0,68,0.00,,,0.00,WeatherCatV1.12B45,2013-01-11 14:54:00,
2013-01-11 07:09:00,43.7,35.6,30.16,NNW,344,0.0,1.0,73,0.00,,,0.00,WeatherCatV1.12B45,2013-01-11 15:09:00,
2013-01-11 07:24:00,44.1,35.0,30.16,NNW,344,0.0,0.0,70,0.00,,,0.00,WeatherCatV1.12B45,2013-01-11 15:24:00,
2013-01-11 07:39:00,42.9,34.2,30.16,NNW,344,0.0,1.0,71,0.00,,,0.00,WeatherCatV1.12B45,2013-01-11 15:39:00,
2013-01-11 07:54:00,43.7,35.3,30.17,NNW,344,0.0,0.0,72,0.00,,,0.00,WeatherCatV1.12B45,2013-01-11 15:54:00,
2013-01-11 08:09:00,46.6,36.6,30.17,ENE,59,0.0,0.0,68,0.00,,,0.00,WeatherCatV1.12B45,2013-01-11 16:09:00,
2013-01-11 08:24:00,47.6,39.0,30.17,ENE,74,2.0,2.0,72,0.00,,,0.00,WeatherCatV1.12B45,2013-01-11 16:24:00,
2013-01-11 08:39:00,45.2,34.1,30.18,East,82,0.0,2.0,65,0.00,,,0.00,WeatherCatV1.12B45,2013-01-11 16:39:00,
2013-01-11 08:54:00,45.5,35.9,30.18,East,81,0.0,0.0,69,0.00,,,0.00,WeatherCatV1.12B45,2013-01-11 16:54:00,
2013-01-11 09:09:00,45.0,37.2,30.18,East,81,0.0,0.0,74,0.00,,,0.00,WeatherCatV1.12B45,2013-01-11 17:09:00,
2013-01-11 09:24:00,44.7,36.9,30.18,East,82,0.0,0.0,74,0.00,,,0.00,WeatherCatV1.12B45,2013-01-11 17:24:00,
2013-01-11 09:39:00,45.6,34.5,30.18,South,182,0.0,2.0,65,0.00,,,0.00,WeatherCatV1.12B45,2013-01-11 17:39:00,
2013-01-11 09:54:00,47.2,36.4,30.18,WNW,293,0.0,0.0,66,0.00,,,0.00,WeatherCatV1.12B45,2013-01-11 17:54:00,
2013-01-11 10:09:00,47.8,35.4,30.19,WNW,293,0.0,2.0,62,0.00,,,0.00,WeatherCatV1.12B45,2013-01-11 18:09:00,
2013-01-11 10:24:00,46.8,35.7,30.18,ESE,107,2.0,2.0,65,0.00,,,0.00,WeatherCatV1.12B45,2013-01-11 18:24:00,
2013-01-11 10:39:00,46.5,35.4,30.18,SE,135,0.0,0.0,65,0.00,,,0.00,WeatherCatV1.12B45,2013-01-11 18:39:00,
2013-01-11 10:54:00,46.8,36.4,30.17,SSW,205,0.0,2.0,67,0.00,,,0.00,WeatherCatV1.12B45,2013-01-11 18:54:00,
2013-01-11 11:09:00,48.0,37.2,30.16,SE,125,4.0,5.0,66,0.00,,,0.00,WeatherCatV1.12B45,2013-01-11 19:09:00,
2013-01-11 11:24:00,47.4,36.2,30.15,SE,137,0.0,2.0,65,0.00,,,0.00,WeatherCatV1.12B45,2013-01-11 19:24:00,
2013-01-11 11:39:00,48.0,36.4,30.15,East,101,2.0,5.0,64,0.00,,,0.00,WeatherCatV1.12B45,2013-01-11 19:39:00,
2013-01-11 11:54:00,48.0,36.4,30.14,ESE,119,0.0,4.0,64,0.00,,,0.00,WeatherCatV1.12B45,2013-01-11 19:54:00,
2013-01-11 12:09:00,48.3,36.7,30.13,SE,134,2.0,5.0,64,0.00,,,0.00,WeatherCatV1.12B45,2013-01-11 20:09:00,
2013-01-11 12:24:00,48.7,36.7,30.12,SSE,149,1.0,5.0,63,0.00,,,0.00,WeatherCatV1.12B45,2013-01-11 20:24:00,
2013-01-11 12:39:00,49.3,37.2,30.11,SE,136,2.0,4.0,63,0.00,,,0.00,WeatherCatV1.12B45,2013-01-11 20:39:00,
2013-01-11 12:54:00,51.5,38.9,30.10,SE,136,0.0,2.0,62,0.00,,,0.00,WeatherCatV1.12B45,2013-01-11 20:54:00,
2013-01-11 13:09:00,51.6,38.6,30.10,ESE,121,0.0,4.0,61,0.00,,,0.00,WeatherCatV1.12B45,2013-01-11 21:09:00,
2013-01-11 13:24:00,53.2,40.9,30.09,East,94,0.0,4.0,63,0.00,,,0.00,WeatherCatV1.12B45,2013-01-11 21:24:00,
2013-01-11 13:39:00,53.4,40.3,30.09,North,355,1.0,5.0,61,0.00,,,0.00,WeatherCatV1.12B45,2013-01-11 21:39:00,
2013-01-11 13:54:00,53.3,41.4,30.08,WSW,243,0.0,5.0,64,0.00,,,0.00,WeatherCatV1.12B45,2013-01-11 21:54:00,
2013-01-11 14:09:00,52.0,42.5,30.08,North,0,2.0,6.0,70,0.00,,,0.00,WeatherCatV1.12B45,2013-01-11 22:09:00,
2013-01-11 14:24:00,51.7,43.7,30.08,SSE,165,0.0,5.0,74,0.00,,,0.00,WeatherCatV1.12B45,2013-01-11 22:24:00,
2013-01-11 14:39:00,51.9,44.2,30.07,WSW,257,4.0,4.0,75,0.00,,,0.00,WeatherCatV1.12B45,2013-01-11 22:39:00,
2013-01-11 14:54:00,50.7,42.7,30.07,NE,51,2.0,6.0,74,0.00,,,0.00,WeatherCatV1.12B45,2013-01-11 22:54:00,
2013-01-11 15:09:00,49.5,41.9,30.07,South,180,0.0,7.0,75,0.00,,,0.00,WeatherCatV1.12B45,2013-01-11 23:09:00,
2013-01-11 15:24:00,49.4,42.2,30.06,South,190,5.0,7.0,76,0.00,,,0.00,WeatherCatV1.12B45,2013-01-11 23:24:00,
2013-01-11 15:39:00,48.8,43.6,30.07,SW,230,0.0,1.0,82,0.00,,,0.00,WeatherCatV1.12B45,2013-01-11 23:39:00,
2013-01-11 15:54:00,48.2,41.7,30.07,South,178,1.0,5.0,78,0.00,,,0.00,WeatherCatV1.12B45,2013-01-11 23:54:00,
2013-01-11 16:09:00,47.8,41.6,30.06,West,270,1.0,2.0,79,0.00,,,0.00,WeatherCatV1.12B45,2013-01-12 00:09:00,
2013-01-11 16:24:00,47.9,42.4,30.06,WSW,238,0.0,5.0,81,0.00,,,0.00,WeatherCatV1.12B45,2013-01-12 00:24:00,
2013-01-11 16:39:00,47.3,41.4,30.06,WSW,248,0.0,1.0,80,0.00,,,0.00,WeatherCatV1.12B45,2013-01-12 00:39:00,
2013-01-11 16:54:00,47.1,41.3,30.06,WSW,241,0.0,5.0,80,0.00,,,0.00,WeatherCatV1.12B45,2013-01-12 00:54:00,
2013-01-11 17:09:00,46.8,41.0,30.05,North,0,0.0,1.0,80,0.00,,,0.00,WeatherCatV1.12B45,2013-01-12 01:09:00,
2013-01-11 17:24:00,46.4,39.6,30.05,SW,223,2.0,5.0,77,0.00,,,0.00,WeatherCatV1.12B45,2013-01-12 01:24:00,
2013-01-11 17:39:00,46.2,39.7,30.05,SSW,207,2.0,3.0,78,0.00,,,0.00,WeatherCatV1.12B45,2013-01-12 01:39:00,
2013-01-11 17:54:00,45.9,39.4,30.05,SSW,196,0.0,4.0,78,0.00,,,0.00,WeatherCatV1.12B45,2013-01-12 01:54:00,
2013-01-11 18:09:00,45.4,38.9,30.06,SSE,153,0.0,4.0,78,0.00,,,0.00,WeatherCatV1.12B45,2013-01-12 02:09:00,
2013-01-11 18:24:00,45.6,39.5,30.05,ESE,123,0.0,4.0,79,0.00,,,0.00,WeatherCatV1.12B45,2013-01-12 02:24:00,
2013-01-11 18:39:00,45.1,39.3,30.06,ESE,108,0.0,1.0,80,0.00,,,0.00,WeatherCatV1.12B45,2013-01-12 02:39:00,
2013-01-11 18:54:00,45.6,39.8,30.06,SE,134,0.0,1.0,80,0.00,,,0.00,WeatherCatV1.12B45,2013-01-12 02:54:00,
2013-01-11 19:09:00,45.6,39.8,30.06,NNE,29,0.0,3.0,80,0.00,,,0.00,WeatherCatV1.12B45,2013-01-12 03:09:00,
2013-01-11 19:24:00,45.5,39.4,30.06,ESE,115,0.0,0.0,79,0.00,,,0.00,WeatherCatV1.12B45,2013-01-12 03:24:00,
2013-01-11 19:39:00,45.5,39.0,30.05,SE,127,0.0,1.0,78,0.00,,,0.00,WeatherCatV1.12B45,2013-01-12 03:39:00,
2013-01-11 19:54:00,45.5,39.7,30.06,NW,326,1.0,2.0,80,0.00,,,0.00,WeatherCatV1.12B45,2013-01-12 03:54:00,
2013-01-11 20:09:00,45.5,39.0,30.06,NNW,343,0.0,1.0,78,0.00,,,0.00,WeatherCatV1.12B45,2013-01-12 04:09:00,
2013-01-11 20:24:00,45.4,38.9,30.07,NNE,26,3.0,4.0,78,0.00,,,0.00,WeatherCatV1.12B45,2013-01-12 04:24:00,
2013-01-11 20:39:00,45.0,39.8,30.07,WNW,282,0.0,4.0,82,0.00,,,0.00,WeatherCatV1.12B45,2013-01-12 04:39:00,
2013-01-11 20:54:00,44.5,38.7,30.08,NNW,335,0.0,1.0,80,0.00,,,0.00,WeatherCatV1.12B45,2013-01-12 04:54:00,
2013-01-11 21:09:00,44.8,40.0,30.08,North,0,0.0,1.0,83,0.00,,,0.00,WeatherCatV1.12B45,2013-01-12 05:09:00,
2013-01-11 21:24:00,44.9,41.3,30.08,NNW,331,0.0,1.0,87,0.00,,,0.00,WeatherCatV1.12B45,2013-01-12 05:24:00,
2013-01-11 21:39:00,43.9,39.1,30.08,NNW,331,0.0,1.0,83,0.00,,,0.00,WeatherCatV1.12B45,2013-01-12 05:39:00,
2013-01-11 21:54:00,43.1,38.9,30.08,East,96,0.0,1.0,85,0.00,,,0.00,WeatherCatV1.12B45,2013-01-12 05:54:00,
2013-01-11 22:09:00,42.8,38.3,30.08,NNW,338,0.0,1.0,84,0.00,,,0.00,WeatherCatV1.12B45,2013-01-12 06:09:00,
2013-01-11 22:24:00,42.5,38.3,30.09,NW,325,0.0,2.0,85,0.00,,,0.00,WeatherCatV1.12B45,2013-01-12 06:24:00,
2013-01-11 22:39:00,42.4,38.5,30.09,NNW,331,0.0,0.0,86,0.00,,,0.00,WeatherCatV1.12B45,2013-01-12 06:39:00,
2013-01-11 22:54:00,42.3,38.4,30.09,North,5,0.0,2.0,86,0.00,,,0.00,WeatherCatV1.12B45,2013-01-12 06:54:00,
2013-01-11 23:09:00,42.2,38.3,30.10,NNW,347,0.0,2.0,86,0.00,,,0.00,WeatherCatV1.12B45,2013-01-12 07:09:00,
2013-01-11 23:24:00,42.3,38.1,30.10,NW,323,1.0,3.0,85,0.00,,,0.00,WeatherCatV1.12B45,2013-01-12 07:24:00,
2013-01-11 23:35:00,42.7,38.2,30.10,North,349,1.0,2.0,84,0.00,,,0.00,WeatherCatV1.12B45,2013-01-12 07:35:00,
2013-01-11 23:39:00,42.5,37.7,30.10,NE,36,0.0,1.0,83,0.00,,,0.00,WeatherCatV1.12B45,2013-01-12 07:39:00,
2013-01-11 23:40:00,42.5,37.7,30.10,NNE,14,1.0,1.0,83,0.00,,,0.00,WeatherCatV1.12B45,2013-01-12 07:40:00,
2013-01-11 23:45:00,42.3,37.8,30.10,NNE,21,0.0,2.0,84,0.00,,,0.00,WeatherCatV1.12B45,2013-01-12 07:45:00,
2013-01-11 23:50:00,42.2,37.4,30.10,NE,40,0.0,1.0,83,0.00,,,0.00,WeatherCatV1.12B45,2013-01-12 07:50:00,
2013-01-11 23:55:00,42.2,37.4,30.10,NE,40,0.0,1.0,83,0.00,,,0.00,WeatherCatV1.12B45,2013-01-12 07:55:00,